Chadstone Weather > Observations for 25/09/20

Select Day:



Observations
Time Temp Hum DP Wind Gust Dir Rain >9am Press
C % C kph kph mm hPa
00:00 10.6 74 6.2 10.4 20.9 NW 0.0 1012.8
00:10 10.4 76 6.4 12.0 25.6 NNW 0.3 1012.8
00:20 10.2 78 6.5 11.3 27.0 NNW 0.9 1012.7
00:30 10.0 80 6.7 9.6 27.0 N 1.2 1012.3
00:40 9.7 84 7.1 8.1 14.8 NNW 1.5 1011.9
00:50 9.5 85 7.1 10.2 23.4 NNW 1.5 1011.6
01:00 9.4 87 7.3 8.1 17.3 N 1.5 1011.5
01:10 9.3 88 7.4 9.4 20.9 NNE 1.8 1011.9
01:20 9.1 88 7.2 10.8 24.5 N 1.8 1011.6
01:30 9.0 89 7.3 7.3 20.9 NNW 1.8 1011.5
01:40 8.6 89 6.9 13.3 28.1 NNW 2.1 1011.5
01:50 8.5 89 6.8 11.8 27.0 NNW 2.1 1011.3
02:00 8.4 89 6.7 12.4 24.5 NW 2.7 1010.3
02:10 8.2 89 6.5 16.2 34.2 NE 2.7 1009.9
02:20 8.1 90 6.6 15.2 34.2 NNE 2.7 1010.2
02:30 8.0 91 6.6 12.2 22.0 NNE 2.7 1010.2
02:40 8.0 91 6.6 11.4 22.0 N 2.7 1009.9
02:50 8.0 91 6.6 8.8 22.0 NNE 2.7 1009.6
03:00 8.0 91 6.6 8.8 22.0 NNE 2.7 1009.6
03:10 8.0 91 6.6 8.8 22.0 NNE 2.7 1009.4
03:20 7.9 92 6.7 8.0 14.8 N 3.0 1009.6
03:30 7.8 92 6.6 10.0 18.4 NNE 3.3 1009.4
03:40 7.8 92 6.6 7.2 14.8 NNE 3.3 1009.1
03:50 7.8 92 6.6 6.3 14.8 N 3.3 1008.9
04:00 7.8 92 6.6 7.3 13.3 NNE 3.3 1008.8
04:10 7.7 93 6.6 5.8 13.3 NNW 3.3 1008.7
04:20 7.6 93 6.5 10.2 18.4 NNE 3.3 1008.5
04:30 7.6 93 6.5 7.9 15.8 NNE 3.3 1008.4
04:40 7.7 93 6.6 7.5 15.8 NNE 3.3 1008.5
04:50 7.7 93 6.6 7.2 14.8 NNE 3.3 1008.4
05:00 7.7 94 6.8 7.7 18.4 NNE 3.6 1008.3
05:10 7.6 94 6.7 7.7 20.9 NNE 3.6 1008.2
05:20 7.6 94 6.7 8.5 19.4 NNE 3.6 1008.2
05:30 7.7 94 6.8 8.3 14.8 NNE 3.6 1008.3
05:40 7.6 94 6.7 9.4 23.4 NE 3.6 1008.4
05:50 7.6 94 6.7 8.9 23.4 NNE 3.9 1008.3
06:00 7.6 94 6.7 9.5 19.4 N 3.9 1008.3
06:10 7.5 95 6.8 7.3 15.8 NNE 3.9 1008.2
06:20 7.6 95 6.9 8.0 14.8 NE 3.9 1008.0
06:30 7.6 95 6.9 8.1 15.8 NE 3.9 1008.3
06:40 7.7 95 7.0 7.3 13.3 NNE 4.2 1008.4
06:50 7.7 95 7.0 8.1 18.4 N 4.2 1008.5
07:00 7.7 95 7.0 8.9 18.4 N 4.2 1008.4
07:10 7.7 95 7.0 8.6 12.2 N 4.2 1008.3
07:20 7.7 95 7.0 8.6 12.2 N 4.2 1008.5
07:30 7.7 95 7.0 8.6 12.2 N 4.2 1008.6
07:40 7.7 95 7.0 8.6 12.2 N 4.2 1008.5
07:50 7.7 95 7.0 8.6 12.2 N 4.2 1008.6
08:00 7.7 95 7.0 8.6 12.2 N 4.2 1008.9
08:10 7.7 95 7.0 8.6 12.2 N 4.2 1008.8
08:20 7.7 95 7.0 8.6 12.2 N 4.2 1008.8
08:30 7.7 95 7.0 8.6 12.2 N 4.2 1008.8
08:40 7.7 95 7.0 8.6 12.2 N 4.2 1008.7
08:50 7.7 95 7.0 8.6 12.2 N 4.2 1008.8
09:00 7.7 95 7.0 8.6 12.2 N 0.0 1008.8
09:10 8.9 95 8.1 6.0 7.2 NNW 0.3 1008.9
09:20 8.9 95 8.1 3.9 7.2 N 0.3 1008.9
09:30 8.6 95 7.8 4.3 9.7 NNW 0.9 1008.8
09:40 8.6 95 7.8 3.5 6.1 NW 1.2 1008.8
09:50 8.4 95 7.6 4.3 8.6 NNW 1.2 1008.8
10:00 8.4 95 7.6 3.2 8.6 NNW 1.2 1008.7
10:10 8.6 95 7.8 4.6 8.6 NW 1.2 1008.6
10:20 8.7 95 7.9 3.3 8.6 NW 1.2 1008.5
10:30 9.0 95 8.2 3.7 8.6 NNW 1.2 1008.5
10:40 9.3 95 8.5 5.0 7.2 NNW 1.2 1008.5
10:50 9.3 95 8.5 5.0 7.2 NW 1.2 1008.4
11:00 10.0 93 8.9 7.1 9.7 WSW 1.2 1008.1
11:10 10.6 91 9.2 7.3 19.4 W 1.2 1007.9
11:20 10.9 87 8.8 4.8 14.8 WNW 1.2 1007.8
11:30 11.0 83 8.2 5.8 14.8 WNW 1.2 1007.9
11:40 11.0 80 7.7 7.8 17.3 WSW 1.2 1008.7
11:50 11.0 77 7.1 6.4 18.4 W 1.2 1008.5
12:00 10.8 76 6.7 7.9 17.3 WNW 1.2 1008.5
12:10 11.2 74 6.7 10.7 18.4 WSW 1.2 1008.4
12:20 11.8 73 7.1 8.6 23.4 WNW 1.2 1008.5
12:30 11.8 71 6.7 10.6 23.4 WNW 1.2 1008.4
12:40 11.7 71 6.6 8.0 15.8 WNW 1.2 1008.4
12:50 11.4 72 6.5 7.4 22.0 NW 1.2 1008.4
13:00 11.3 75 7.0 8.4 19.4 W 1.8 1008.2
13:10 11.3 81 8.2 4.2 15.8 WSW 1.8 1008.0
13:20 11.4 83 8.6 8.2 22.0 SW 1.8 1007.8
13:30 11.5 83 8.7 7.4 22.0 WSW 1.8 1007.7
13:40 12.0 79 8.5 9.4 25.6 SW 1.8 1007.6
13:50 11.9 77 8.0 8.6 19.4 WSW 1.8 1007.7
14:00 11.1 76 7.0 8.6 23.4 WSW 1.8 1007.2
14:10 10.6 78 6.9 12.0 28.1 SW 1.8 1007.2
14:20 10.4 79 6.9 10.0 28.1 SW 1.8 1007.5
14:30 10.4 79 6.9 13.0 31.7 WSW 1.8 1007.9
14:40 10.0 77 6.2 12.1 29.5 W 1.8 1008.2
14:50 9.9 78 6.2 13.7 28.1 NW 1.8 1008.3
15:00 9.5 78 5.9 10.7 20.9 WSW 1.8 1008.5
15:10 9.0 78 5.4 10.6 24.5 W 1.8 1008.2
15:20 8.9 80 5.6 9.5 25.6 WNW 1.8 1008.2
15:30 8.8 81 5.7 9.7 25.6 WSW 1.8 1008.5
15:40 8.7 82 5.8 9.4 19.4 NNE 1.8 1008.7
15:50 8.3 83 5.6 10.9 33.1 WSW 1.8 1008.9
16:00 8.1 85 5.7 10.9 23.4 W 1.8 1009.3
16:10 8.1 85 5.7 7.8 22.0 W 1.8 1009.5
16:20 8.3 87 6.3 8.1 23.4 W 2.1 1009.7
16:30 8.2 87 6.2 6.4 18.4 SW 2.4 1009.9
16:40 7.8 88 5.9 5.5 15.8 SSW 3.0 1010.1
16:50 7.7 88 5.8 3.2 12.2 SSW 3.9 1010.3
17:00 7.7 88 5.8 1.1 5.0 SE 3.9 1010.4
17:10 7.7 88 5.8 1.1 5.0 SE 3.9 1009.8
17:20 7.7 88 5.8 1.1 5.0 SE 3.9 1010.0
17:30 7.7 88 5.8 1.1 5.0 SE 3.9 1010.4
17:40 7.7 88 5.8 1.1 5.0 SE 3.9 1010.6
17:50 7.7 88 5.8 1.1 5.0 SE 3.9 1010.8
18:00 7.7 88 5.8 1.1 5.0 SE 3.9 1010.9
18:10 7.7 88 5.8 1.1 5.0 SE 3.9 1010.9
18:20 7.7 88 5.8 1.1 5.0 SE 3.9 1011.0
18:30 7.7 88 5.8 1.1 5.0 SE 3.9 1011.2
18:40 7.7 93 6.6 2.5 7.2 W 5.4 1011.3
18:50 7.7 93 6.6 2.5 7.2 WNW 5.4 1011.4
19:00 7.7 93 6.6 2.5 5.0 NW 5.4 1011.7
19:10 7.7 93 6.6 5.0 7.2 SW 7.5 1011.8
19:20 7.6 93 6.5 2.6 7.2 W 8.4 1011.8
19:30 7.6 93 6.5 2.6 7.2 W 8.4 1011.8
19:40 7.6 93 6.5 2.6 7.2 W 8.4 1012.1
19:50 7.6 93 6.5 2.6 7.2 W 8.4 1012.4
20:00 7.6 93 6.5 2.6 7.2 W 8.4 1012.5
20:10 7.6 93 6.5 2.6 7.2 W 8.4 1012.5
20:20 7.6 93 6.5 2.6 7.2 W 8.4 1012.5
20:30 7.6 93 6.5 2.6 7.2 W 8.4 1012.6
20:40 7.6 93 6.5 2.6 7.2 W 8.4 1012.8
20:50 7.6 93 6.5 2.6 7.2 W 8.4 1012.8
21:00 7.6 93 6.5 2.6 7.2 W 8.4 1013.0
21:10 7.6 93 6.5 2.6 7.2 W 8.4 1013.2
21:20 7.6 93 6.5 2.6 7.2 W 8.4 1013.2
21:30 7.6 93 6.5 2.6 7.2 W 8.4 1013.4
21:40 7.6 93 6.5 2.6 7.2 W 8.4 1013.5
21:50 7.6 93 6.5 2.6 7.2 W 8.4 1013.5
22:00 7.6 93 6.5 2.6 7.2 W 8.4 1013.6
22:10 7.6 93 6.5 2.6 7.2 W 8.4 1013.6
22:20 7.6 93 6.5 2.6 7.2 W 8.4 1013.6
22:30 7.6 93 6.5 2.6 7.2 W 8.4 1013.6
22:40 7.6 93 6.5 2.6 7.2 W 8.4 1013.8
22:50 7.6 93 6.5 2.6 7.2 W 8.4 1013.8
23:00 7.6 93 6.5 2.6 7.2 W 8.4 1013.8
23:10 7.6 93 6.5 2.6 7.2 W 8.4 1013.8
23:20 7.6 93 6.5 2.6 7.2 W 8.4 1013.7
23:30 7.6 93 6.5 2.6 7.2 W 8.4 1013.7
23:40 7.6 93 6.5 2.6 7.2 W 8.4 1013.8
23:50 7.6 93 6.5 2.6 7.2 W 8.4 1013.7